createdAt,value
2019-03-28T00:00:11.420Z,13.38
2019-03-28T00:02:41.004Z,13.20
2019-03-28T00:05:10.730Z,11.38
2019-03-28T00:07:40.259Z,14.40
2019-03-28T00:10:10.350Z,14.93
2019-03-28T00:12:40.192Z,18.60
2019-03-28T00:15:10.085Z,21.07
2019-03-28T00:17:39.568Z,18.15
2019-03-28T00:20:10.075Z,28.30
2019-03-28T00:22:41.323Z,31.33
2019-03-28T00:25:12.995Z,31.50
2019-03-28T00:27:42.522Z,27.82
2019-03-28T00:30:12.169Z,19.17
2019-03-28T00:32:41.665Z,25.80
2019-03-28T00:35:11.543Z,19.60
2019-03-28T00:37:41.049Z,18.37
2019-03-28T00:40:10.861Z,15.98
2019-03-28T00:42:40.444Z,17.65
2019-03-28T00:45:10.285Z,19.60
2019-03-28T00:47:39.833Z,18.07
2019-03-28T00:50:09.876Z,16.40
2019-03-28T00:52:39.455Z,16.25
2019-03-28T00:55:09.454Z,14.78
2019-03-28T00:57:38.987Z,14.55
2019-03-28T01:00:09.041Z,12.90
2019-03-28T01:02:38.534Z,14.23
2019-03-28T01:05:08.295Z,13.20
2019-03-28T01:07:37.806Z,10.75
2019-03-28T01:10:07.848Z,37.17
2019-03-28T01:12:37.361Z,36.35
2019-03-28T01:15:09.439Z,29.80
2019-03-28T01:17:39.041Z,17.30
2019-03-28T01:20:09.225Z,15.08
2019-03-28T01:22:38.747Z,13.38
2019-03-28T01:25:08.580Z,28.67
2019-03-28T01:27:38.070Z,35.95
2019-03-28T01:30:09.063Z,23.32
2019-03-28T01:32:38.579Z,24.70
2019-03-28T01:35:08.322Z,16.12
2019-03-28T01:37:37.815Z,11.33
2019-03-28T01:40:08.245Z,11.45
2019-03-28T01:42:37.722Z,13.30
2019-03-28T01:45:08.478Z,13.98
2019-03-28T01:47:38.065Z,15.95
2019-03-28T01:50:08.488Z,17.02
2019-03-28T01:52:38.048Z,13.55
2019-03-28T01:55:08.675Z,17.25
2019-03-28T01:57:38.907Z,23.40
2019-03-28T02:00:12.318Z,27.77
2019-03-28T02:02:42.057Z,23.10
2019-03-28T02:05:11.821Z,17.52
2019-03-28T02:07:41.405Z,19.27
2019-03-28T02:10:11.252Z,16.20
2019-03-28T02:12:40.867Z,12.63
2019-03-28T02:15:11.116Z,11.57
2019-03-28T02:17:40.803Z,12.70
2019-03-28T02:20:11.625Z,10.48
2019-03-28T02:22:41.276Z,9.88
2019-03-28T02:25:11.140Z,10.08
2019-03-28T02:27:40.736Z,10.08
2019-03-28T02:30:10.944Z,9.55
2019-03-28T02:32:40.449Z,10.30
2019-03-28T02:35:10.273Z,9.23
2019-03-28T02:37:39.769Z,9.95
2019-03-28T02:40:09.516Z,8.45
2019-03-28T02:42:39.075Z,10.95
2019-03-28T02:45:09.323Z,11.03
2019-03-28T02:47:38.827Z,9.78
2019-03-28T02:50:08.658Z,8.68
2019-03-28T02:52:38.232Z,10.82
2019-03-28T02:55:08.528Z,9.55
2019-03-28T02:57:41.787Z,10.08
2019-03-28T03:00:10.426Z,10.70
2019-03-28T03:02:39.928Z,11.90
2019-03-28T03:05:10.248Z,9.65
2019-03-28T03:07:39.993Z,10.13
2019-03-28T03:10:09.827Z,10.45
2019-03-28T03:12:39.350Z,9.93
2019-03-28T03:15:10.165Z,9.98
2019-03-28T03:17:39.710Z,9.40
2019-03-28T03:20:10.036Z,10.65
2019-03-28T03:22:39.589Z,9.25
2019-03-28T03:25:09.928Z,11.20
2019-03-28T03:27:55.977Z,10.13
2019-03-28T03:30:12.943Z,11.28
2019-03-28T03:32:42.768Z,10.20
2019-03-28T03:35:12.820Z,9.55
2019-03-28T03:37:42.459Z,10.20
2019-03-28T03:40:12.377Z,10.63
2019-03-28T03:42:42.021Z,8.90
2019-03-28T03:45:11.750Z,10.75
2019-03-28T03:47:41.403Z,10.30
2019-03-28T03:50:12.688Z,9.58
2019-03-28T03:52:42.193Z,10.28
2019-03-28T03:55:11.749Z,10.95
2019-03-28T03:57:41.242Z,10.58
2019-03-28T04:00:11.196Z,10.60
2019-03-28T04:02:40.686Z,11.10
2019-03-28T04:05:10.339Z,10.50
2019-03-28T04:07:39.822Z,9.58
2019-03-28T04:10:09.587Z,10.70
2019-03-28T04:12:39.070Z,10.68
2019-03-28T04:15:08.819Z,10.78
2019-03-28T04:17:38.311Z,10.58
2019-03-28T04:20:08.546Z,11.40
2019-03-28T04:22:38.023Z,11.45
2019-03-28T04:25:07.849Z,9.43
2019-03-28T04:27:37.345Z,11.50
2019-03-28T04:30:08.918Z,11.95
2019-03-28T04:32:38.411Z,11.33
2019-03-28T04:35:08.261Z,11.88
2019-03-28T04:37:37.779Z,10.70
2019-03-28T04:40:09.181Z,9.65
2019-03-28T04:42:38.667Z,11.12
2019-03-28T04:45:09.094Z,10.63
2019-03-28T04:47:38.656Z,11.53
2019-03-28T04:50:08.667Z,10.32
2019-03-28T04:52:38.243Z,12.40
2019-03-28T04:55:08.366Z,10.65
2019-03-28T04:57:40.892Z,10.03
2019-03-28T05:00:11.072Z,12.98
2019-03-28T05:02:40.641Z,11.28
2019-03-28T05:05:10.486Z,11.75
2019-03-28T05:07:40.048Z,10.85
2019-03-28T05:10:11.051Z,11.28
2019-03-28T05:12:40.637Z,11.18
2019-03-28T05:15:11.247Z,11.00
2019-03-28T05:17:40.846Z,11.25
2019-03-28T05:20:13.248Z,12.60
2019-03-28T05:22:42.423Z,10.98
2019-03-28T05:25:12.071Z,13.20
2019-03-28T05:27:41.573Z,10.75
2019-03-28T05:30:12.676Z,11.88
2019-03-28T05:32:42.183Z,11.33
2019-03-28T05:35:12.630Z,12.18
2019-03-28T05:37:42.106Z,11.10
2019-03-28T05:40:11.858Z,13.58
2019-03-28T05:42:41.409Z,11.40
2019-03-28T05:45:11.908Z,12.00
2019-03-28T05:47:41.583Z,11.48
2019-03-28T05:50:11.394Z,12.73
2019-03-28T05:52:40.879Z,11.18
2019-03-28T05:55:10.649Z,12.88
2019-03-28T05:57:40.151Z,13.88
2019-03-28T06:00:10.384Z,13.98
2019-03-28T06:02:40.543Z,13.08
2019-03-28T06:05:10.142Z,13.65
2019-03-28T06:07:39.689Z,12.95
2019-03-28T06:10:10.365Z,13.75
2019-03-28T06:12:40.025Z,13.32
2019-03-28T06:15:10.059Z,14.90
2019-03-28T06:17:39.682Z,13.28
2019-03-28T06:20:10.816Z,15.15
2019-03-28T06:22:40.336Z,14.25
2019-03-28T06:25:10.060Z,14.38
2019-03-28T06:27:39.547Z,13.60
2019-03-28T06:30:11.239Z,13.08
2019-03-28T06:32:43.180Z,13.95
2019-03-28T06:35:12.043Z,13.35
2019-03-28T06:37:41.551Z,14.35
2019-03-28T06:40:11.286Z,13.55
2019-03-28T06:42:40.859Z,13.53
2019-03-28T06:45:10.825Z,13.90
2019-03-28T06:47:40.372Z,13.90
2019-03-28T06:50:10.490Z,12.88
2019-03-28T06:52:40.238Z,15.83
2019-03-28T06:55:10.290Z,14.23
2019-03-28T06:57:39.763Z,13.80
2019-03-28T07:00:11.388Z,17.73
2019-03-28T07:02:41.047Z,14.00
2019-03-28T07:05:11.467Z,12.90
2019-03-28T07:07:40.999Z,14.85
2019-03-28T07:10:11.419Z,13.65
2019-03-28T07:12:40.937Z,16.02
2019-03-28T07:15:11.262Z,16.30
2019-03-28T07:17:40.779Z,15.32
2019-03-28T07:20:11.987Z,14.85
2019-03-28T07:22:41.495Z,14.95
2019-03-28T07:25:11.168Z,14.38
2019-03-28T07:27:40.651Z,15.80
2019-03-28T07:30:13.078Z,15.88
2019-03-28T07:32:43.754Z,17.98
2019-03-28T07:35:13.709Z,16.70
2019-03-28T07:37:44.539Z,17.37
2019-03-28T07:40:15.784Z,15.87
2019-03-28T07:42:45.269Z,18.15
2019-03-28T07:45:15.218Z,16.90
2019-03-28T07:47:44.876Z,17.83
2019-03-28T07:53:16.032Z,16.37
2019-03-28T07:56:23.878Z,17.23
2019-03-28T07:59:12.740Z,16.47
2019-03-28T08:02:01.599Z,17.43
2019-03-28T08:04:43.093Z,15.80
2019-03-28T08:07:44.362Z,15.90
2019-03-28T08:10:22.575Z,16.53
2019-03-28T08:13:11.415Z,15.80
2019-03-28T08:16:00.265Z,15.90
2019-03-28T08:18:49.177Z,16.03
2019-03-28T08:21:38.036Z,14.23
2019-03-28T08:24:26.857Z,17.53
2019-03-28T08:27:15.702Z,15.90
2019-03-28T08:30:25.448Z,16.60
2019-03-28T08:33:14.301Z,16.77
2019-03-28T08:36:03.196Z,17.43
2019-03-28T08:38:52.205Z,15.57
2019-03-28T08:41:41.116Z,15.10
2019-03-28T08:44:29.949Z,15.67
2019-03-28T08:47:18.839Z,14.73
2019-03-28T08:53:36.046Z,16.07
2019-03-28T08:56:24.900Z,14.90
2019-03-28T08:59:13.804Z,17.27
2019-03-28T09:04:56.860Z,18.30
2019-03-28T09:07:45.707Z,16.60
2019-03-28T09:10:34.619Z,18.53
2019-03-28T09:13:23.467Z,15.20
2019-03-28T09:16:12.336Z,18.17
2019-03-28T09:19:01.162Z,19.30
2019-03-28T09:21:50.005Z,18.67
2019-03-28T09:24:38.837Z,18.17
2019-03-28T09:27:27.728Z,16.43
2019-03-28T09:30:48.177Z,17.87
2019-03-28T09:33:47.091Z,17.33
2019-03-28T09:36:16.604Z,17.70
2019-03-28T09:39:26.376Z,19.17
2019-03-28T09:42:15.207Z,18.00
2019-03-28T09:45:24.939Z,20.70
2019-03-28T09:48:13.802Z,17.90
2019-03-28T09:51:02.628Z,18.27
2019-03-28T09:53:51.486Z,18.40
2019-03-28T09:56:40.390Z,17.57
2019-03-28T09:59:29.252Z,18.53
2019-03-28T10:02:18.093Z,18.17
2019-03-28T10:05:00.566Z,19.37
2019-03-28T10:07:49.350Z,17.60
2019-03-28T10:10:38.205Z,19.00
2019-03-28T10:13:27.101Z,17.73
2019-03-28T10:16:16.053Z,17.23
2019-03-28T10:19:04.957Z,18.00
2019-03-28T10:21:53.834Z,18.10
2019-03-28T10:24:42.738Z,19.63
2019-03-28T10:27:31.590Z,19.83
2019-03-28T10:30:41.303Z,18.60
2019-03-28T10:33:30.146Z,18.87
2019-03-28T10:36:19.005Z,17.13
2019-03-28T10:42:23.575Z,17.57
2019-03-28T10:45:12.499Z,17.47
2019-03-28T10:48:01.309Z,19.87
2019-03-28T10:50:50.297Z,19.67
2019-03-28T10:53:39.146Z,17.37
2019-03-28T10:56:27.983Z,16.23
2019-03-28T10:59:23.567Z,16.10
2019-03-28T11:02:07.556Z,15.70
2019-03-28T11:04:49.219Z,17.37
2019-03-28T11:07:38.094Z,15.67
2019-03-28T11:10:30.371Z,18.20
2019-03-28T11:13:17.552Z,18.77
2019-03-28T11:16:06.380Z,15.20
2019-03-28T11:18:55.241Z,15.87
2019-03-28T11:21:44.086Z,15.30
2019-03-28T11:24:32.943Z,13.80
2019-03-28T11:27:21.824Z,15.37
2019-03-28T11:33:39.127Z,14.00
2019-03-28T11:36:28.029Z,14.53
2019-03-28T11:39:16.840Z,13.67
2019-03-28T11:42:05.769Z,13.83
2019-03-28T11:44:54.634Z,13.03
2019-03-28T11:47:43.453Z,14.10
2019-03-28T11:50:32.382Z,12.87
2019-03-28T11:53:21.213Z,14.23
2019-03-28T11:56:10.058Z,13.53
2019-03-28T11:58:58.959Z,11.50
2019-03-28T12:01:59.407Z,12.30
2019-03-28T12:04:31.598Z,10.60
2019-03-28T12:07:01.179Z,11.20
2019-03-28T12:09:50.011Z,11.37
2019-03-28T12:12:38.869Z,10.90
2019-03-28T12:15:27.694Z,10.70
2019-03-28T12:18:16.546Z,11.00
2019-03-28T12:21:05.380Z,10.50
2019-03-28T12:23:54.205Z,9.70
2019-03-28T12:26:43.131Z,12.33
2019-03-28T12:29:35.558Z,13.33
2019-03-28T12:32:22.612Z,13.07
2019-03-28T12:35:11.617Z,13.07
2019-03-28T12:38:00.438Z,14.00
2019-03-28T12:40:49.311Z,14.10
2019-03-28T12:43:38.160Z,13.57
2019-03-28T12:46:26.980Z,12.80
2019-03-28T12:49:15.843Z,14.27
2019-03-28T12:52:04.720Z,14.17
2019-03-28T12:54:54.698Z,13.07
2019-03-28T12:57:44.123Z,14.83
2019-03-28T13:00:52.373Z,13.03
2019-03-28T13:03:45.745Z,11.90
2019-03-28T13:06:24.944Z,12.13
2019-03-28T13:09:13.890Z,12.87
2019-03-28T13:12:02.730Z,12.63
2019-03-28T13:14:51.671Z,12.87
2019-03-28T13:17:40.577Z,12.30
2019-03-28T13:20:29.516Z,12.53
2019-03-28T13:23:18.357Z,11.50
2019-03-28T13:26:07.231Z,10.37
2019-03-28T13:28:56.203Z,11.80
2019-03-28T13:31:45.120Z,12.80
2019-03-28T13:34:33.956Z,12.03
2019-03-28T13:37:22.824Z,11.90
2019-03-28T13:40:11.791Z,12.53
2019-03-28T13:43:00.675Z,11.97
2019-03-28T13:45:49.525Z,12.10
2019-03-28T13:48:38.444Z,13.10
2019-03-28T13:51:27.284Z,12.33
2019-03-28T13:54:16.133Z,14.80
2019-03-28T13:57:04.973Z,11.77
2019-03-28T13:59:53.954Z,12.83
2019-03-28T14:02:54.856Z,13.13
2019-03-28T14:05:25.962Z,12.83
2019-03-28T14:08:14.823Z,15.07
2019-03-28T14:11:03.668Z,14.07
2019-03-28T14:13:52.565Z,13.90
2019-03-28T14:16:41.423Z,14.70
2019-03-28T14:19:30.256Z,14.50
2019-03-28T14:25:14.762Z,14.43
2019-03-28T14:28:03.668Z,14.57
2019-03-28T14:30:52.541Z,14.07
2019-03-28T14:33:41.452Z,14.60
2019-03-28T14:36:30.286Z,14.87
2019-03-28T14:39:19.117Z,14.20
2019-03-28T14:42:07.957Z,15.10
2019-03-28T14:44:56.836Z,15.90
2019-03-28T14:47:45.666Z,15.80
2019-03-28T14:53:49.967Z,15.83
2019-03-28T14:56:39.069Z,14.90
2019-03-28T15:02:56.177Z,15.50
2019-03-28T15:05:38.178Z,17.33
2019-03-28T15:08:27.017Z,16.20
2019-03-28T15:11:15.873Z,16.30
2019-03-28T15:14:04.759Z,15.77
2019-03-28T15:16:53.576Z,17.40
2019-03-28T15:19:42.454Z,14.60
2019-03-28T15:22:31.294Z,16.67
2019-03-28T15:25:20.224Z,15.27
2019-03-28T15:28:09.047Z,17.23
2019-03-28T15:30:57.892Z,15.90
2019-03-28T15:33:46.770Z,15.27
2019-03-28T15:36:35.630Z,16.60
2019-03-28T15:39:24.501Z,17.67
2019-03-28T15:42:13.342Z,17.73
2019-03-28T15:45:02.400Z,17.37
2019-03-28T15:47:52.164Z,16.80
2019-03-28T15:50:41.873Z,15.37
2019-03-28T15:53:30.710Z,17.60
2019-03-28T15:56:19.632Z,17.77
2019-03-28T15:59:08.544Z,17.60
2019-03-28T16:01:59.938Z,18.60
2019-03-28T16:04:48.047Z,18.27
2019-03-28T16:07:36.974Z,18.13
2019-03-28T16:10:25.785Z,17.10
2019-03-28T16:13:14.715Z,19.77
2019-03-28T16:16:03.613Z,19.97
2019-03-28T16:18:52.469Z,17.70
2019-03-28T16:21:41.311Z,20.00
2019-03-28T16:24:30.256Z,19.20
2019-03-28T16:27:19.107Z,19.70
2019-03-28T16:30:28.823Z,18.87
2019-03-28T16:33:17.673Z,18.53
2019-03-28T16:36:06.592Z,23.57
2019-03-28T16:38:55.450Z,19.90
2019-03-28T16:41:44.358Z,19.40
2019-03-28T16:44:33.204Z,19.17
2019-03-28T16:47:22.044Z,19.00
2019-03-28T16:50:11.062Z,17.90
2019-03-28T16:52:59.903Z,18.90
2019-03-28T16:55:48.797Z,18.00
2019-03-28T16:58:37.685Z,16.73
2019-03-28T17:01:26.620Z,17.20
2019-03-28T17:04:21.045Z,17.53
2019-03-28T17:07:00.590Z,19.57
2019-03-28T17:09:50.400Z,18.50
2019-03-28T17:12:31.916Z,17.23
2019-03-28T17:15:20.759Z,16.13
2019-03-28T17:18:09.668Z,17.60
2019-03-28T17:20:58.573Z,16.00
2019-03-28T17:23:47.433Z,15.77
2019-03-28T17:26:36.402Z,18.50
2019-03-28T17:29:25.286Z,18.83
2019-03-28T17:32:14.165Z,18.30
2019-03-28T17:35:03.785Z,19.93
2019-03-28T17:37:53.675Z,19.30
2019-03-28T17:40:42.579Z,19.20
2019-03-28T17:43:31.701Z,18.07
2019-03-28T17:46:20.559Z,18.00
2019-03-28T17:49:09.476Z,20.43
2019-03-28T17:51:58.331Z,19.27
2019-03-28T17:54:47.202Z,19.10
2019-03-28T17:57:36.057Z,19.43
2019-03-28T18:00:44.446Z,20.50
2019-03-28T18:03:33.298Z,18.70
2019-03-28T18:06:15.009Z,19.50
2019-03-28T18:12:19.112Z,17.87
2019-03-28T18:15:08.112Z,18.20
2019-03-28T18:17:56.945Z,21.33
2019-03-28T18:20:45.813Z,24.90
2019-03-28T18:23:34.638Z,16.87
2019-03-28T18:26:23.782Z,14.63
2019-03-28T18:29:12.657Z,14.63
2019-03-28T18:32:01.554Z,15.87
2019-03-28T18:35:04.612Z,16.23
2019-03-28T18:38:00.205Z,16.10
2019-03-28T18:40:49.301Z,16.07
2019-03-28T18:43:38.184Z,15.50
2019-03-28T18:46:27.121Z,16.03
2019-03-28T18:49:15.972Z,16.50
2019-03-28T18:52:07.393Z,16.87
2019-03-28T18:54:55.473Z,15.50
2019-03-28T18:57:44.375Z,16.53
2019-03-28T19:00:33.296Z,15.83
2019-03-28T19:03:22.259Z,16.20
2019-03-28T19:06:04.475Z,17.83
2019-03-28T19:08:53.816Z,17.00
2019-03-28T19:11:43.937Z,15.77
2019-03-28T19:14:32.794Z,16.00
2019-03-28T19:17:21.731Z,13.57
2019-03-28T19:20:10.774Z,14.90
2019-03-28T19:22:59.681Z,15.80
2019-03-28T19:25:48.542Z,13.90
2019-03-28T19:28:37.437Z,15.77
2019-03-28T19:31:26.308Z,16.13
2019-03-28T19:34:15.185Z,17.43
2019-03-28T19:37:04.091Z,17.20
2019-03-28T19:39:52.952Z,16.73
2019-03-28T19:42:41.810Z,16.00
2019-03-28T19:45:50.056Z,16.77
2019-03-28T19:48:38.992Z,15.65
2019-03-28T19:51:47.837Z,16.00
2019-03-28T19:54:37.675Z,17.37
2019-03-28T19:57:26.546Z,17.27
2019-03-28T20:00:15.534Z,17.07
2019-03-28T20:03:04.532Z,15.60
2019-03-28T20:05:53.443Z,17.77
2019-03-28T20:08:34.935Z,16.30
2019-03-28T20:11:23.917Z,14.85
2019-03-28T20:14:14.340Z,17.55
2019-03-28T20:17:03.231Z,18.17
2019-03-28T20:19:52.110Z,17.42
2019-03-28T20:22:40.984Z,18.12
2019-03-28T20:25:29.850Z,15.95
2019-03-28T20:28:18.790Z,18.48
2019-03-28T20:31:07.752Z,20.88
2019-03-28T20:33:56.608Z,19.62
2019-03-28T20:36:45.441Z,18.60
2019-03-28T20:39:34.384Z,19.92
2019-03-28T20:42:23.237Z,19.75
2019-03-28T20:48:27.226Z,19.17
2019-03-28T20:51:16.067Z,17.85
2019-03-28T20:54:07.755Z,19.42
2019-03-28T20:56:57.850Z,18.60
2019-03-28T20:59:46.837Z,17.82
2019-03-28T21:02:36.945Z,19.42
2019-03-28T21:05:25.774Z,19.32
2019-03-28T21:08:08.133Z,18.17
2019-03-28T21:10:56.982Z,19.70
2019-03-28T21:13:45.819Z,21.00
2019-03-28T21:16:34.661Z,19.15
2019-03-28T21:19:23.521Z,19.65
2019-03-28T21:22:12.368Z,19.32
2019-03-28T21:25:01.259Z,19.65
2019-03-28T21:27:50.208Z,25.82
2019-03-28T21:33:33.304Z,23.57
2019-03-28T21:36:29.719Z,22.07
2019-03-28T21:39:12.731Z,19.12
2019-03-28T21:42:01.583Z,19.95
2019-03-28T21:44:50.526Z,18.57
2019-03-28T21:47:39.362Z,21.42
2019-03-28T21:50:28.214Z,31.60
2019-03-28T21:53:19.800Z,25.20
2019-03-28T21:56:07.606Z,21.35
2019-03-28T21:58:56.892Z,21.15
2019-03-28T22:01:47.049Z,21.45
2019-03-28T22:04:35.923Z,21.62
2019-03-28T22:07:18.031Z,20.82
2019-03-28T22:10:27.755Z,20.97
2019-03-28T22:13:16.580Z,19.57
2019-03-28T22:16:07.688Z,19.52
2019-03-28T22:18:56.071Z,21.50
2019-03-28T22:21:44.928Z,19.50
2019-03-28T22:24:33.762Z,25.68
2019-03-28T22:27:22.637Z,23.52
2019-03-28T22:33:39.855Z,19.25
2019-03-28T22:36:28.673Z,20.55
2019-03-28T22:39:17.558Z,18.32
2019-03-28T22:42:06.401Z,17.07
2019-03-28T22:44:55.238Z,18.90
2019-03-28T22:47:24.761Z,16.70
2019-03-28T22:50:13.788Z,19.42
2019-03-28T22:53:02.633Z,18.37
2019-03-28T22:55:51.456Z,18.62
2019-03-28T22:58:40.323Z,19.92
2019-03-28T23:01:29.311Z,17.82
2019-03-28T23:04:37.319Z,20.10
2019-03-28T23:07:19.098Z,18.05
2019-03-28T23:10:27.970Z,18.42
2019-03-28T23:13:16.826Z,19.62
2019-03-28T23:16:24.913Z,20.32
2019-03-28T23:19:13.747Z,19.23
2019-03-28T23:22:02.604Z,19.85
2019-03-28T23:24:51.434Z,20.72
2019-03-28T23:27:40.295Z,17.92
2019-03-28T23:30:29.131Z,19.32
2019-03-28T23:33:17.988Z,21.00
2019-03-28T23:36:06.998Z,20.05
2019-03-28T23:38:57.388Z,20.48
2019-03-28T23:41:46.203Z,20.68
2019-03-28T23:44:35.044Z,20.08
2019-03-28T23:47:23.883Z,19.40
2019-03-28T23:50:12.794Z,21.35
2019-03-28T23:53:01.702Z,20.40
2019-03-28T23:55:50.544Z,29.65
2019-03-28T23:58:39.369Z,28.85
